Time;durP1;ratioP1;P1;durP2;ratioP2;P2;SDS_P1;SDS_P2;PMS_P1;PMS_P2;Temp;Humidity;BMP_temperature;BMP_pressure;BME280_temperature;BME280_humidity;BME280_pressure;Samples;Min_cycle;Max_cycle;Signal;HPM_P1;HPM_P2
2021/01/30 00:01:44;;;;;;;3.22;1.00;;;11.10;63.80;;;;;;5055473;28;20032;-77
2021/01/30 00:04:14;;;;;;;3.42;1.15;;;11.10;63.80;;;;;;5055528;28;20496;-77
2021/01/30 00:06:53;;;;;;;4.55;2.47;;;11.10;63.50;;;;;;5055666;28;20449;-77
2021/01/30 00:09:26;;;;;;;1.90;0.68;;;11.20;63.60;;;;;;5055735;28;20057;-76
2021/01/30 00:11:58;;;;;;;4.88;0.40;;;11.10;62.90;;;;;;5055326;28;20032;-77
2021/01/30 00:14:33;;;;;;;0.85;0.30;;;11.20;63.20;;;;;;5055210;28;20021;-77
2021/01/30 00:17:02;;;;;;;0.50;0.40;;;11.20;62.90;;;;;;5055485;28;20462;-77
2021/01/30 00:19:29;;;;;;;1.00;0.50;;;11.20;62.90;;;;;;5054416;28;20029;-77
2021/01/30 00:21:58;;;;;;;2.03;0.50;;;11.20;63.20;;;;;;5054712;28;20055;-77
2021/01/30 00:24:25;;;;;;;0.90;0.38;;;11.20;63.80;;;;;;5053572;28;20493;-77
2021/01/30 00:26:56;;;;;;;0.57;0.47;;;11.20;65.30;;;;;;5054793;28;20025;-76
2021/01/30 00:29:23;;;;;;;3.47;0.60;;;11.20;66.00;;;;;;5035710;28;20018;-76
2021/01/30 00:31:49;;;;;;;1.33;0.50;;;11.20;65.90;;;;;;5052894;28;20380;-76
2021/01/30 00:34:17;;;;;;;0.85;0.40;;;11.10;65.40;;;;;;5054666;28;20021;-77
2021/01/30 00:36:43;;;;;;;2.05;0.43;;;11.10;65.00;;;;;;5054688;28;20459;-76
2021/01/30 00:39:09;;;;;;;2.08;0.30;;;11.00;65.00;;;;;;5054691;28;20029;-76
2021/01/30 00:41:35;;;;;;;0.73;0.47;;;11.00;65.10;;;;;;5054730;28;20436;-76
2021/01/30 00:44:01;;;;;;;0.55;0.50;;;11.00;65.10;;;;;;5053451;28;20021;-76
2021/01/30 00:46:27;;;;;;;0.47;0.30;;;10.90;65.00;;;;;;5053344;28;20043;-76
2021/01/30 00:48:53;;;;;;;0.60;0.20;;;10.90;64.90;;;;;;5053333;28;20021;-76
2021/01/30 00:51:20;;;;;;;3.95;1.50;;;10.90;64.80;;;;;;5054473;28;20027;-77
2021/01/30 00:53:47;;;;;;;0.75;0.50;;;10.90;64.80;;;;;;5054627;28;20109;-76
2021/01/30 00:56:14;;;;;;;1.08;0.43;;;10.90;65.00;;;;;;5054520;28;20055;-76
2021/01/30 00:58:44;;;;;;;1.05;0.38;;;10.90;64.70;;;;;;5054537;28;20028;-76
2021/01/30 01:01:11;;;;;;;0.60;0.20;;;10.90;65.00;;;;;;5054412;28;20021;-77
2021/01/30 01:03:36;;;;;;;1.10;0.35;;;10.90;65.00;;;;;;5054370;28;20120;-76
2021/01/30 01:06:03;;;;;;;0.55;0.22;;;10.90;65.00;;;;;;5054316;28;20509;-77
2021/01/30 01:08:29;;;;;;;1.70;1.20;;;10.90;65.10;;;;;;5054334;28;20121;-77
2021/01/30 01:10:55;;;;;;;1.13;0.73;;;10.90;65.10;;;;;;5054058;28;20036;-77
2021/01/30 01:13:21;;;;;;;1.05;0.30;;;10.90;65.20;;;;;;5054124;28;20469;-76
2021/01/30 01:15:47;;;;;;;0.35;0.30;;;10.90;65.00;;;;;;5054076;28;20052;-77
2021/01/30 01:18:13;;;;;;;2.70;1.30;;;10.90;65.00;;;;;;5052703;28;20381;-77
2021/01/30 01:20:39;;;;;;;2.50;1.40;;;10.90;64.80;;;;;;5053938;28;20021;-77
2021/01/30 01:23:05;;;;;;;1.73;0.93;;;10.90;64.90;;;;;;5052379;28;20134;-76
2021/01/30 01:25:31;;;;;;;1.08;0.38;;;10.90;64.80;;;;;;5052708;28;20027;-77
2021/01/30 01:27:58;;;;;;;1.08;0.50;;;10.90;64.70;;;;;;5046302;28;20116;-77
2021/01/30 01:30:25;;;;;;;0.65;0.25;;;10.90;64.30;;;;;;5052350;28;20364;-77
2021/01/30 01:32:52;;;;;;;1.15;0.50;;;10.90;64.40;;;;;;5053717;28;20017;-76
2021/01/30 01:35:27;;;;;;;0.47;0.40;;;10.90;64.30;;;;;;5053693;28;20025;-77
2021/01/30 01:37:53;;;;;;;1.00;0.30;;;10.90;64.20;;;;;;5053975;28;20377;-77
2021/01/30 01:40:27;;;;;;;0.47;0.30;;;11.00;64.20;;;;;;5052371;28;20040;-77
2021/01/30 01:43:09;;;;;;;1.50;0.28;;;10.90;64.00;;;;;;5053643;28;20025;-77
2021/01/30 01:45:35;;;;;;;2.13;0.40;;;10.90;63.50;;;;;;5053513;28;20025;-78
2021/01/30 01:48:05;;;;;;;0.45;0.30;;;11.00;63.90;;;;;;5053330;28;20021;-77
2021/01/30 01:50:37;;;;;;;0.55;0.20;;;11.00;64.00;;;;;;5053329;28;20017;-79
2021/01/30 01:53:26;;;;;;;0.50;0.22;;;11.00;64.00;;;;;;5053297;28;20096;-78
2021/01/30 01:55:55;;;;;;;0.30;0.30;;;11.00;63.50;;;;;;5053724;28;20474;-78
2021/01/30 01:58:22;;;;;;;1.25;0.45;;;10.90;63.20;;;;;;5053377;28;20102;-78
2021/01/30 02:00:50;;;;;;;0.98;0.30;;;11.00;63.30;;;;;;5068778;28;20040;-78
2021/01/30 02:03:19;;;;;;;1.02;0.15;;;11.00;62.70;;;;;;5053327;28;20429;-78
2021/01/30 02:05:46;;;;;;;0.45;0.28;;;11.00;62.60;;;;;;5052131;28;20064;-79
2021/01/30 02:08:17;;;;;;;0.20;0.20;;;11.00;63.00;;;;;;5053329;28;20028;-78
2021/01/30 02:10:46;;;;;;;2.92;0.28;;;11.00;62.80;;;;;;5053398;28;20409;-78
2021/01/30 02:13:21;;;;;;;1.83;0.32;;;11.00;63.10;;;;;;5053259;28;20021;-79
2021/01/30 02:15:53;;;;;;;0.20;0.20;;;11.10;63.10;;;;;;5052139;28;20020;-78
2021/01/30 02:18:24;;;;;;;0.30;0.30;;;11.10;63.10;;;;;;5053378;28;20385;-78
2021/01/30 02:21:39;;;;;;;0.50;0.25;;;11.10;63.10;;;;;;5053250;28;20039;-78
2021/01/30 02:24:52;;;;;;;0.63;0.20;;;11.10;63.00;;;;;;5053097;28;20430;-79
2021/01/30 02:27:27;;;;;;;0.68;0.22;;;11.10;62.80;;;;;;5052914;28;20683;-79
2021/01/30 02:30:01;;;;;;;1.75;0.30;;;11.10;62.90;;;;;;5053158;28;20501;-79
2021/01/30 02:32:55;;;;;;;0.57;0.20;;;11.10;62.70;;;;;;5051848;28;20108;-79
2021/01/30 02:35:53;;;;;;;0.30;0.20;;;11.10;62.80;;;;;;5053187;28;20465;-78
2021/01/30 02:38:23;;;;;;;0.68;0.32;;;11.20;62.90;;;;;;5051958;28;20116;-80
2021/01/30 02:40:54;;;;;;;0.70;0.40;;;11.20;62.90;;;;;;5053345;28;20096;-79
2021/01/30 02:43:27;;;;;;;0.85;0.43;;;11.20;63.50;;;;;;5052761;28;20029;-79
2021/01/30 02:45:59;;;;;;;0.65;0.40;;;11.20;62.70;;;;;;5057271;28;20052;-83
2021/01/30 02:48:33;;;;;;;0.98;0.45;;;11.20;63.40;;;;;;5055818;28;20025;-84
2021/01/30 02:51:02;;;;;;;0.30;0.20;;;11.20;63.00;;;;;;5056158;28;20059;-85
2021/01/30 02:53:51;;;;;;;1.55;0.40;;;11.20;62.90;;;;;;5056922;28;20493;-85
2021/01/30 02:56:20;;;;;;;3.17;0.47;;;11.20;62.20;;;;;;5048581;28;20025;-86
2021/01/30 02:59:06;;;;;;;0.47;0.20;;;11.20;62.60;;;;;;5037211;28;20558;-90
2021/01/30 03:01:37;;;;;;;2.58;0.50;;;11.20;62.80;;;;;;5046029;28;20096;-91
2021/01/30 03:04:09;;;;;;;1.02;0.40;;;11.20;62.70;;;;;;5050321;28;20025;-86
2021/01/30 03:07:01;;;;;;;1.50;0.30;;;11.20;62.60;;;;;;5052069;28;20029;-87
2021/01/30 03:09:34;;;;;;;0.45;0.30;;;11.20;62.50;;;;;;5036778;28;20483;-85
2021/01/30 03:12:41;;;;;;;0.20;0.20;;;11.30;62.60;;;;;;5036627;28;20538;-84
2021/01/30 03:15:09;;;;;;;0.40;0.17;;;11.30;62.30;;;;;;5042402;28;20036;-84
2021/01/30 03:17:36;;;;;;;0.60;0.20;;;11.20;62.80;;;;;;5035962;28;20032;-84
2021/01/30 03:20:03;;;;;;;0.80;0.32;;;11.30;62.80;;;;;;5038486;28;20037;-83
2021/01/30 03:22:32;;;;;;;0.90;0.43;;;11.30;62.70;;;;;;5054495;28;20117;-84
2021/01/30 03:24:59;;;;;;;0.30;0.20;;;11.30;62.80;;;;;;5055637;28;20124;-84
2021/01/30 03:27:31;;;;;;;1.20;0.50;;;11.30;62.60;;;;;;5054329;28;20496;-84
2021/01/30 03:29:57;;;;;;;1.45;0.50;;;11.30;62.90;;;;;;5055809;28;20363;-84
2021/01/30 03:32:24;;;;;;;0.95;0.30;;;11.30;62.90;;;;;;5049856;28;20021;-84
2021/01/30 03:34:52;;;;;;;0.40;0.30;;;11.30;63.10;;;;;;5054301;28;20386;-84
2021/01/30 03:37:19;;;;;;;0.50;0.30;;;11.30;63.10;;;;;;5054076;28;20040;-84
2021/01/30 03:39:45;;;;;;;0.68;0.30;;;11.30;63.20;;;;;;5054189;28;20025;-84
2021/01/30 03:42:11;;;;;;;2.88;0.57;;;11.30;63.40;;;;;;5041185;28;20037;-83
2021/01/30 03:44:38;;;;;;;0.95;0.50;;;11.30;63.30;;;;;;5034085;28;20036;-83
2021/01/30 03:47:04;;;;;;;5.63;2.50;;;11.30;63.50;;;;;;5041867;28;20025;-83
2021/01/30 03:49:31;;;;;;;1.08;0.57;;;11.30;63.80;;;;;;5033896;28;20024;-83
2021/01/30 03:51:57;;;;;;;1.75;0.30;;;11.30;63.90;;;;;;5047640;28;20029;-86
2021/01/30 03:54:23;;;;;;;1.15;0.30;;;11.30;63.80;;;;;;5055849;28;20051;-86
2021/01/30 03:56:49;;;;;;;1.48;0.32;;;11.20;63.90;;;;;;5054782;28;20029;-88
2021/01/30 03:59:19;;;;;;;1.80;0.55;;;11.20;64.00;;;;;;5055700;28;20036;-88
2021/01/30 04:01:46;;;;;;;3.40;1.33;;;11.20;64.00;;;;;;5049622;28;20029;-89
2021/01/30 04:04:12;;;;;;;0.93;0.40;;;11.20;64.30;;;;;;5054679;28;20021;-89
2021/01/30 04:06:38;;;;;;;0.50;0.30;;;11.20;64.50;;;;;;5054396;28;20033;-89
2021/01/30 04:09:05;;;;;;;1.90;0.73;;;11.10;64.30;;;;;;5054658;28;20029;-88
2021/01/30 04:11:33;;;;;;;4.13;1.40;;;11.10;64.50;;;;;;5053872;28;20781;-89
2021/01/30 04:14:00;;;;;;;2.55;1.10;;;11.00;64.40;;;;;;5054397;28;20067;-89
2021/01/30 04:16:26;;;;;;;1.30;0.40;;;11.00;64.70;;;;;;5045266;28;20111;-88
2021/01/30 04:18:52;;;;;;;1.23;0.60;;;11.00;64.60;;;;;;5055295;28;20467;-88
2021/01/30 04:21:19;;;;;;;2.85;1.30;;;11.00;64.90;;;;;;5055269;28;20040;-87
2021/01/30 04:23:46;;;;;;;1.25;0.45;;;11.00;65.00;;;;;;5053951;28;20041;-89
2021/01/30 04:26:12;;;;;;;2.05;0.65;;;11.00;64.70;;;;;;5055166;28;20025;-87
2021/01/30 04:28:38;;;;;;;0.68;0.25;;;11.00;64.80;;;;;;5055120;28;20452;-87
2021/01/30 04:31:04;;;;;;;0.93;0.35;;;11.00;64.60;;;;;;5053889;28;20052;-86
2021/01/30 04:33:30;;;;;;;1.65;0.60;;;11.00;64.90;;;;;;5053815;28;20110;-86
2021/01/30 04:35:56;;;;;;;1.45;0.50;;;11.00;64.50;;;;;;5049808;28;20030;-86
2021/01/30 04:38:21;;;;;;;2.15;0.65;;;11.00;64.20;;;;;;5033676;28;20025;-85
2021/01/30 04:40:48;;;;;;;1.00;0.35;;;11.00;64.00;;;;;;5034567;28;20036;-85
2021/01/30 04:43:29;;;;;;;1.13;0.50;;;11.00;63.50;;;;;;5033171;28;20485;-84
2021/01/30 04:46:19;;;;;;;2.40;0.40;;;11.00;63.70;;;;;;5032783;28;20056;-83
2021/01/30 04:48:50;;;;;;;0.60;0.50;;;10.90;63.00;;;;;;5032970;28;20032;-83
2021/01/30 04:51:23;;;;;;;1.48;0.50;;;10.90;63.20;;;;;;5032644;28;20030;-82
2021/01/30 04:54:07;;;;;;;0.98;0.47;;;11.00;63.30;;;;;;5052499;28;20388;-80
2021/01/30 04:56:57;;;;;;;3.07;0.40;;;10.90;63.30;;;;;;5053532;28;20162;-81
2021/01/30 04:59:47;;;;;;;2.58;0.65;;;11.00;63.20;;;;;;5045716;28;20100;-81
2021/01/30 05:02:30;;;;;;;0.40;0.30;;;11.00;63.50;;;;;;5039002;28;20026;-82
2021/01/30 05:04:57;;;;;;;4.63;0.50;;;11.00;63.50;;;;;;5033618;28;20499;-81
2021/01/30 05:07:53;;;;;;;0.40;0.20;;;11.00;63.40;;;;;;5043170;28;20035;-81
2021/01/30 05:10:41;;;;;;;1.13;0.35;;;10.90;63.10;;;;;;5033509;28;20483;-81
2021/01/30 05:13:17;;;;;;;5.05;0.47;;;11.00;62.80;;;;;;5051677;28;20047;-80
2021/01/30 05:15:57;;;;;;;2.20;0.50;;;11.00;62.50;;;;;;5051840;28;20028;-80
2021/01/30 05:18:32;;;;;;;3.90;0.73;;;11.00;62.60;;;;;;5053334;28;20470;-80
2021/01/30 05:21:17;;;;;;;1.48;0.50;;;11.10;62.80;;;;;;5052832;28;20478;-79
2021/01/30 05:23:48;;;;;;;2.15;0.32;;;11.10;62.50;;;;;;5049170;28;20041;-79
2021/01/30 05:26:37;;;;;;;0.73;0.38;;;11.10;61.90;;;;;;5031943;28;20025;-79
2021/01/30 05:29:24;;;;;;;0.65;0.32;;;11.10;62.30;;;;;;5052220;28;20147;-79
2021/01/30 05:31:53;;;;;;;0.88;0.50;;;11.20;62.10;;;;;;5041453;28;20026;-78
2021/01/30 05:34:25;;;;;;;2.58;0.50;;;11.10;62.20;;;;;;5034029;28;20047;-79
2021/01/30 05:36:58;;;;;;;2.15;0.50;;;11.10;61.80;;;;;;5042900;28;20037;-78
2021/01/30 05:39:42;;;;;;;4.07;0.50;;;11.20;62.30;;;;;;5053319;28;20052;-78
2021/01/30 05:42:29;;;;;;;0.82;0.35;;;11.20;61.90;;;;;;5051507;28;20033;-79
2021/01/30 05:45:40;;;;;;;1.10;0.52;;;11.20;61.70;;;;;;5053698;28;20028;-79
2021/01/30 05:48:13;;;;;;;2.05;0.85;;;11.20;61.20;;;;;;5052278;28;20059;-79
2021/01/30 05:50:45;;;;;;;2.00;0.60;;;11.20;61.40;;;;;;5053882;28;20096;-78
2021/01/30 05:53:17;;;;;;;1.08;0.40;;;11.20;61.80;;;;;;5052226;28;20111;-79
2021/01/30 05:55:43;;;;;;;0.70;0.30;;;11.30;62.10;;;;;;5051102;28;20449;-79
2021/01/30 05:58:15;;;;;;;1.15;0.30;;;11.30;61.50;;;;;;5049336;28;20117;-79
2021/01/30 06:00:41;;;;;;;2.25;0.60;;;11.30;61.50;;;;;;5033511;28;20025;-78
2021/01/30 06:03:21;;;;;;;1.25;0.35;;;11.30;61.10;;;;;;5032184;28;20030;-78
2021/01/30 06:06:08;;;;;;;2.17;0.95;;;11.30;61.10;;;;;;5033356;28;20111;-78
2021/01/30 06:08:34;;;;;;;2.78;1.23;;;11.30;60.70;;;;;;5032124;28;20029;-78
2021/01/30 06:11:12;;;;;;;0.50;0.30;;;11.30;61.10;;;;;;5052785;28;20474;-78
2021/01/30 06:13:56;;;;;;;1.67;0.40;;;11.30;60.20;;;;;;5053603;28;20075;-78
2021/01/30 06:16:47;;;;;;;1.10;0.28;;;11.30;60.10;;;;;;5052630;28;20044;-78
2021/01/30 06:19:20;;;;;;;0.98;0.50;;;11.30;60.90;;;;;;5056024;28;20031;-78
2021/01/30 06:21:47;;;;;;;1.02;0.40;;;11.40;61.30;;;;;;5045948;28;20025;-78
2021/01/30 06:24:30;;;;;;;0.73;0.20;;;11.40;60.90;;;;;;5056542;28;20061;-78
2021/01/30 06:27:01;;;;;;;1.63;0.30;;;11.40;60.70;;;;;;5047308;28;20172;-78
2021/01/30 06:29:31;;;;;;;5.15;0.40;;;11.40;61.10;;;;;;5035975;28;20025;-78
2021/01/30 06:32:21;;;;;;;0.95;0.22;;;11.50;61.20;;;;;;5037079;28;20096;-78
2021/01/30 06:35:05;;;;;;;1.63;0.60;;;11.50;61.30;;;;;;5037081;28;20017;-78
2021/01/30 06:37:49;;;;;;;0.20;0.10;;;11.50;60.90;;;;;;5051810;28;20037;-77
2021/01/30 06:40:18;;;;;;;1.13;0.45;;;11.50;60.80;;;;;;5057113;28;20052;-78
2021/01/30 06:42:46;;;;;;;1.50;0.40;;;11.50;61.20;;;;;;5038264;28;20029;-77
2021/01/30 06:45:24;;;;;;;1.05;0.30;;;11.50;61.10;;;;;;5035866;28;20026;-77
2021/01/30 06:47:52;;;;;;;1.45;0.38;;;11.50;60.40;;;;;;5035593;28;20135;-77
2021/01/30 06:50:26;;;;;;;0.75;0.40;;;11.50;60.70;;;;;;5037204;28;20351;-77
2021/01/30 06:52:51;;;;;;;0.75;0.45;;;11.50;60.90;;;;;;5048508;28;20017;-77
2021/01/30 06:55:17;;;;;;;2.75;0.30;;;11.50;61.30;;;;;;5036861;28;20021;-77
2021/01/30 06:58:01;;;;;;;0.70;0.40;;;11.50;60.50;;;;;;5036864;28;20498;-77
2021/01/30 07:00:37;;;;;;;0.47;0.30;;;11.50;61.30;;;;;;5040827;28;20044;-77
2021/01/30 07:03:07;;;;;;;0.90;0.28;;;11.50;60.80;;;;;;5036727;28;20260;-77
2021/01/30 07:05:58;;;;;;;2.05;0.80;;;11.60;61.20;;;;;;5036903;28;20025;-77
2021/01/30 07:08:40;;;;;;;0.60;0.38;;;11.60;61.00;;;;;;5036588;28;20100;-77
2021/01/30 07:11:30;;;;;;;1.15;0.40;;;11.60;60.60;;;;;;5036581;28;20018;-77
2021/01/30 07:14:30;;;;;;;1.75;0.52;;;11.60;60.60;;;;;;5036530;28;20127;-77
2021/01/30 07:17:25;;;;;;;1.02;0.43;;;11.60;60.40;;;;;;5036482;28;20029;-76
2021/01/30 07:19:56;;;;;;;;;;;11.60;60.70;;;;;;5035744;28;20095;-77
2021/01/30 07:22:40;;;;;;;1.08;0.65;;;11.70;60.80;;;;;;5036353;28;20362;-77
2021/01/30 07:25:16;;;;;;;1.63;0.60;;;11.70;60.10;;;;;;5036666;28;20537;-77
2021/01/30 07:27:47;;;;;;;2.45;0.77;;;11.70;60.50;;;;;;5035877;28;20475;-76
2021/01/30 07:30:21;;;;;;;1.13;0.57;;;11.80;60.90;;;;;;5036910;28;20018;-76
2021/01/30 07:33:04;;;;;;;1.15;0.40;;;11.80;60.80;;;;;;5052124;28;20048;-77
2021/01/30 07:36:00;;;;;;;2.50;0.88;;;11.80;61.00;;;;;;5056519;28;20524;-76
2021/01/30 07:38:35;;;;;;;1.05;0.32;;;11.80;59.80;;;;;;5055488;28;20489;-76
2021/01/30 07:41:16;;;;;;;3.08;0.60;;;11.80;60.00;;;;;;5052867;28;20108;-77
2021/01/30 07:43:51;;;;;;;1.30;0.50;;;11.80;59.50;;;;;;5055994;28;20029;-77
2021/01/30 07:46:24;;;;;;;3.58;0.55;;;11.80;59.60;;;;;;5055172;28;20120;-76
2021/01/30 07:49:17;;;;;;;1.92;0.77;;;11.80;60.00;;;;;;5046338;28;20051;-76
2021/01/30 07:51:46;;;;;;;1.08;0.40;;;11.80;59.70;;;;;;5055188;28;20037;-76
2021/01/30 07:54:13;;;;;;;0.70;0.40;;;11.90;59.60;;;;;;5053203;28;20041;-77
2021/01/30 07:57:29;;;;;;;1.67;0.40;;;11.90;60.30;;;;;;5048130;28;20032;-77
2021/01/30 08:00:00;;;;;;;1.40;0.50;;;12.00;60.60;;;;;;5052016;28;20053;-76
2021/01/30 08:03:23;;;;;;;4.38;0.55;;;12.10;59.70;;;;;;5054599;28;20433;-76
2021/01/30 08:06:06;;;;;;;2.45;0.40;;;12.20;59.20;;;;;;5063899;28;20579;-76
2021/01/30 08:08:40;;;;;;;3.75;0.63;;;12.30;58.10;;;;;;5071543;28;20098;-76
2021/01/30 08:11:28;;;;;;;1.00;0.40;;;12.40;57.80;;;;;;5072217;28;20034;-76
2021/01/30 08:14:31;;;;;;;1.58;0.50;;;12.40;57.20;;;;;;5072235;28;20486;-76
2021/01/30 08:17:22;;;;;;;2.30;0.40;;;12.40;56.90;;;;;;5072201;28;20159;-76
2021/01/30 08:19:57;;;;;;;1.13;0.40;;;12.40;56.70;;;;;;5072187;28;20029;-76
2021/01/30 08:22:49;;;;;;;3.55;0.63;;;12.50;57.20;;;;;;5072274;28;20047;-76
2021/01/30 08:25:30;;;;;;;1.55;0.40;;;12.50;56.70;;;;;;5070413;28;20079;-76
2021/01/30 08:28:14;;;;;;;3.03;0.55;;;12.50;56.70;;;;;;5068588;28;20037;-76
2021/01/30 08:30:42;;;;;;;2.55;0.60;;;12.60;56.80;;;;;;5069154;28;20219;-76
2021/01/30 08:33:08;;;;;;;1.85;0.47;;;12.60;56.00;;;;;;5054933;28;20095;-77
2021/01/30 08:35:44;;;;;;;3.60;0.70;;;12.70;56.70;;;;;;5071114;28;20037;-76
2021/01/30 08:38:15;;;;;;;5.95;0.82;;;12.70;56.00;;;;;;5070147;28;20028;-75
2021/01/30 08:40:45;;;;;;;2.58;0.60;;;12.70;55.40;;;;;;5063536;28;20064;-76
2021/01/30 08:43:19;;;;;;;2.40;0.70;;;12.80;55.10;;;;;;5048104;28;20032;-76
2021/01/30 08:45:45;;;;;;;;;;;12.80;55.50;;;;;;5054094;28;20193;-76
2021/01/30 08:48:17;;;;;;;4.15;0.98;;;12.80;56.30;;;;;;5048042;28;19913;-76
2021/01/30 08:50:46;;;;;;;4.20;0.60;;;12.90;54.80;;;;;;5053668;28;20386;-76
2021/01/30 08:53:24;;;;;;;5.07;0.77;;;12.90;55.50;;;;;;5051203;28;20029;-76
2021/01/30 08:56:02;;;;;;;1.60;0.52;;;13.00;55.00;;;;;;5044832;28;20024;-76
2021/01/30 08:58:36;;;;;;;3.72;1.35;;;13.00;54.80;;;;;;5053693;28;20466;-75
2021/01/30 09:01:07;;;;;;;3.50;0.88;;;13.00;54.20;;;;;;5053305;28;20043;-75
2021/01/30 09:04:00;;;;;;;2.90;0.80;;;12.90;54.20;;;;;;5053441;28;20032;-76
2021/01/30 09:06:41;;;;;;;3.08;0.80;;;13.00;54.90;;;;;;5052826;28;20037;-76
2021/01/30 09:09:10;;;;;;;4.13;0.80;;;13.00;55.10;;;;;;5047461;28;20040;-76
2021/01/30 09:11:43;;;;;;;2.97;0.75;;;13.00;55.20;;;;;;5044019;28;20033;-76
2021/01/30 09:14:36;;;;;;;1.98;0.88;;;13.00;56.60;;;;;;5050867;28;20017;-76
2021/01/30 09:17:11;;;;;;;3.38;1.38;;;12.90;56.20;;;;;;5043935;28;20021;-76
2021/01/30 09:20:02;;;;;;;2.33;1.08;;;12.90;56.20;;;;;;5031995;28;20446;-76
2021/01/30 09:22:39;;;;;;;2.28;0.75;;;12.80;56.70;;;;;;5033115;28;20481;-76
2021/01/30 09:25:42;;;;;;;4.35;0.77;;;12.80;57.10;;;;;;5033116;28;20096;-76
2021/01/30 09:28:22;;;;;;;5.75;0.98;;;12.80;57.20;;;;;;5033147;28;20021;-75
2021/01/30 09:30:54;;;;;;;2.53;1.00;;;12.90;57.50;;;;;;5033043;28;20046;-76
2021/01/30 09:34:05;;;;;;;4.15;1.10;;;12.90;57.30;;;;;;5033036;28;20483;-76
2021/01/30 09:36:47;;;;;;;3.05;0.90;;;13.00;57.60;;;;;;5038998;28;20049;-74
2021/01/30 09:39:26;;;;;;;1.15;0.57;;;13.00;56.90;;;;;;5050871;28;20029;-74
2021/01/30 09:42:09;;;;;;;3.88;0.77;;;13.10;57.00;;;;;;5052946;28;20029;-74
2021/01/30 09:44:35;;;;;;;4.97;0.90;;;13.20;56.00;;;;;;5037936;28;20090;-74
2021/01/30 09:47:11;;;;;;;6.20;0.80;;;13.30;56.20;;;;;;5049133;28;20530;-73
2021/01/30 09:49:54;;;;;;;2.83;1.05;;;13.30;55.60;;;;;;5052762;28;20139;-73
2021/01/30 09:52:21;;;;;;;2.78;1.00;;;13.40;55.50;;;;;;5052587;28;20017;-73
2021/01/30 09:54:54;;;;;;;6.32;1.20;;;13.50;54.50;;;;;;5049085;28;20467;-73
2021/01/30 09:57:24;;;;;;;5.43;1.33;;;13.40;53.80;;;;;;5031176;28;20391;-74
2021/01/30 10:00:05;;;;;;;11.27;1.25;;;13.50;53.70;;;;;;5033337;28;20033;-73
2021/01/30 10:02:31;;;;;;;2.25;0.82;;;13.50;53.60;;;;;;5039206;28;20523;-73
2021/01/30 10:05:10;;;;;;;5.53;1.05;;;13.50;53.10;;;;;;5053652;28;20033;-73
2021/01/30 10:07:37;;;;;;;4.03;0.98;;;13.40;52.90;;;;;;5052042;28;20500;-73
2021/01/30 10:10:25;;;;;;;3.03;1.00;;;13.40;53.80;;;;;;5048610;28;20521;-74
2021/01/30 10:12:53;;;;;;;3.15;0.80;;;13.40;53.30;;;;;;5032186;28;20047;-73
2021/01/30 10:15:32;;;;;;;3.22;0.88;;;13.40;53.00;;;;;;5033388;28;20033;-73
2021/01/30 10:18:06;;;;;;;8.45;0.85;;;13.30;53.00;;;;;;5033292;28;20033;-73
2021/01/30 10:20:46;;;;;;;5.95;1.85;;;13.30;53.10;;;;;;5033343;28;20025;-73
2021/01/30 10:23:12;;;;;;;7.30;1.52;;;13.30;53.20;;;;;;5033191;28;20041;-73
2021/01/30 10:25:39;;;;;;;5.00;1.08;;;13.30;53.30;;;;;;5033132;28;20109;-73
2021/01/30 10:28:11;;;;;;;4.47;1.13;;;13.30;52.90;;;;;;5033014;28;20033;-73
2021/01/30 10:30:37;;;;;;;5.55;1.23;;;13.30;52.50;;;;;;5033186;28;20056;-73
2021/01/30 10:33:09;;;;;;;5.07;1.30;;;13.30;52.60;;;;;;5033194;28;20022;-73
2021/01/30 10:35:49;;;;;;;2.72;0.90;;;13.30;52.90;;;;;;5033772;28;20470;-73
2021/01/30 10:38:18;;;;;;;6.22;1.17;;;13.30;52.90;;;;;;5033058;28;20024;-76
2021/01/30 10:41:05;;;;;;;6.40;1.27;;;13.20;52.70;;;;;;5031499;28;20072;-76
2021/01/30 10:43:38;;;;;;;5.43;1.05;;;13.30;52.70;;;;;;5048247;28;20100;-76
2021/01/30 10:46:17;;;;;;;5.65;1.05;;;13.30;52.80;;;;;;5032983;28;20426;-76
2021/01/30 10:48:43;;;;;;;5.53;1.23;;;13.30;52.30;;;;;;5032859;28;20017;-76
2021/01/30 10:51:21;;;;;;;6.38;1.30;;;13.40;52.90;;;;;;5032933;28;20363;-75
2021/01/30 10:53:47;;;;;;;9.65;2.17;;;13.40;52.60;;;;;;5032942;28;20026;-76
2021/01/30 10:56:28;;;;;;;7.63;1.33;;;13.40;52.30;;;;;;5032834;28;20100;-76
2021/01/30 10:58:57;;;;;;;6.22;1.30;;;13.40;52.20;;;;;;5032987;28;20044;-76
2021/01/30 11:01:32;;;;;;;8.55;1.27;;;13.40;52.30;;;;;;5033033;28;20387;-76
2021/01/30 11:03:57;;;;;;;4.78;1.42;;;13.40;52.00;;;;;;5035390;28;20021;-76
2021/01/30 11:06:48;;;;;;;2.78;1.00;;;13.40;52.00;;;;;;5056635;28;20029;-76
2021/01/30 11:09:21;;;;;;;4.70;1.13;;;13.50;51.90;;;;;;5048187;28;20022;-75
2021/01/30 11:11:48;;;;;;;3.40;1.05;;;13.60;52.30;;;;;;5051902;28;20429;-75
2021/01/30 11:14:34;;;;;;;6.82;1.23;;;13.60;52.10;;;;;;5036596;28;20021;-75
2021/01/30 11:17:03;;;;;;;5.15;1.95;;;13.60;52.00;;;;;;5036234;28;20033;-75
2021/01/30 11:19:31;;;;;;;6.43;1.25;;;13.70;51.70;;;;;;5036483;28;20052;-75
2021/01/30 11:22:17;;;;;;;7.53;1.30;;;13.70;51.90;;;;;;5036312;28;20533;-75
2021/01/30 11:24:49;;;;;;;7.88;1.42;;;13.70;51.20;;;;;;5036137;28;20136;-75
2021/01/30 11:27:32;;;;;;;6.13;1.55;;;13.80;51.90;;;;;;5036233;28;20104;-75
2021/01/30 11:30:17;;;;;;;3.80;1.30;;;13.80;52.20;;;;;;5036158;28;20049;-75
2021/01/30 11:32:54;;;;;;;6.30;2.55;;;13.80;52.10;;;;;;5036066;28;20021;-75
2021/01/30 11:35:27;;;;;;;7.47;1.75;;;13.80;52.10;;;;;;5048085;28;20028;-75
2021/01/30 11:37:55;;;;;;;5.70;1.45;;;13.80;52.50;;;;;;5055723;28;20033;-76
2021/01/30 11:40:21;;;;;;;9.68;1.60;;;13.90;53.70;;;;;;5055888;28;20410;-75
2021/01/30 11:42:47;;;;;;;6.43;2.22;;;13.80;53.30;;;;;;5055817;28;20021;-75
2021/01/30 11:45:13;;;;;;;7.10;2.50;;;13.80;53.10;;;;;;5049027;28;20025;-75
2021/01/30 11:47:39;;;;;;;9.82;1.88;;;13.80;53.00;;;;;;5035959;28;20031;-75
2021/01/30 11:50:06;;;;;;;4.47;1.02;;;13.80;53.70;;;;;;5053225;28;20053;-74
2021/01/30 11:52:32;;;;;;;8.20;1.42;;;13.70;53.90;;;;;;5055697;28;20059;-76
2021/01/30 11:54:58;;;;;;;5.30;1.55;;;13.70;54.10;;;;;;5055698;28;20048;-75
2021/01/30 11:57:24;;;;;;;2.72;0.95;;;13.70;54.00;;;;;;5054280;28;20040;-75
2021/01/30 11:59:50;;;;;;;8.55;1.80;;;13.70;53.90;;;;;;5055500;28;20025;-75
2021/01/30 12:02:32;;;;;;;5.80;1.73;;;13.70;54.00;;;;;;5055261;28;20033;-74
2021/01/30 12:04:57;;;;;;;7.88;1.58;;;13.60;53.60;;;;;;5054971;28;20029;-75
2021/01/30 12:07:23;;;;;;;6.82;1.88;;;13.50;53.90;;;;;;5053616;28;20489;-74
2021/01/30 12:09:49;;;;;;;6.03;1.13;;;13.40;54.20;;;;;;5055422;28;20021;-74
2021/01/30 12:12:15;;;;;;;4.75;1.20;;;13.40;54.80;;;;;;5054910;28;20017;-75
2021/01/30 12:14:40;;;;;;;7.03;1.33;;;13.30;55.20;;;;;;5041122;28;20378;-75
2021/01/30 12:17:07;;;;;;;7.75;1.52;;;13.20;55.70;;;;;;5033609;28;20029;-75
2021/01/30 12:19:33;;;;;;;7.13;1.42;;;13.20;55.80;;;;;;5034936;28;20491;-75
2021/01/30 12:21:59;;;;;;;6.80;1.30;;;13.10;55.70;;;;;;5033586;28;20025;-75
2021/01/30 12:24:25;;;;;;;9.63;1.77;;;13.10;56.30;;;;;;5034650;28;20232;-75
2021/01/30 12:26:51;;;;;;;7.30;1.77;;;13.10;56.90;;;;;;5034510;28;20033;-76
2021/01/30 12:29:17;;;;;;;5.55;1.55;;;13.00;56.30;;;;;;5034797;28;20021;-75
2021/01/30 12:31:43;;;;;;;5.30;1.23;;;13.10;56.70;;;;;;5034685;28;20028;-75
2021/01/30 12:34:08;;;;;;;5.97;1.40;;;13.10;57.10;;;;;;5034519;28;20097;-75
2021/01/30 12:36:34;;;;;;;9.48;2.13;;;13.10;56.90;;;;;;5034892;28;20467;-76
2021/01/30 12:39:00;;;;;;;5.68;1.42;;;13.10;57.20;;;;;;5034754;28;20025;-75
2021/01/30 12:41:26;;;;;;;12.13;2.08;;;13.10;57.50;;;;;;5047917;28;20119;-75
2021/01/30 12:43:51;;;;;;;9.10;2.10;;;13.20;57.30;;;;;;5053115;28;20049;-75
2021/01/30 12:46:17;;;;;;;7.32;1.92;;;13.10;57.10;;;;;;5052982;28;20442;-75
2021/01/30 12:48:43;;;;;;;10.75;3.22;;;13.10;57.60;;;;;;5054513;28;20108;-75
2021/01/30 12:51:09;;;;;;;9.30;3.00;;;13.20;58.10;;;;;;5054271;28;20430;-75
2021/01/30 12:53:35;;;;;;;6.80;2.22;;;13.20;58.20;;;;;;5054298;28;20075;-76
2021/01/30 12:56:00;;;;;;;9.27;1.80;;;13.20;58.60;;;;;;5054253;28;20117;-75
2021/01/30 12:58:28;;;;;;;8.95;1.65;;;13.30;58.50;;;;;;5054212;28;20029;-76
2021/01/30 13:00:55;;;;;;;9.13;1.75;;;13.40;59.20;;;;;;5052779;28;20029;-76
2021/01/30 13:03:23;;;;;;;13.40;2.92;;;13.50;58.70;;;;;;5052627;28;20021;-76
2021/01/30 13:05:50;;;;;;;19.58;5.93;;;13.60;57.90;;;;;;5053748;28;20039;-75
2021/01/30 13:08:17;;;;;;;8.90;2.95;;;13.70;58.10;;;;;;5053899;28;20061;-75
2021/01/30 13:10:44;;;;;;;8.13;2.45;;;13.80;57.50;;;;;;5053959;28;20027;-75
2021/01/30 13:13:10;;;;;;;4.68;1.60;;;13.80;57.20;;;;;;5052343;28;20048;-75
2021/01/30 13:15:36;;;;;;;8.82;2.10;;;13.90;57.10;;;;;;5053800;28;20021;-75
2021/01/30 13:18:03;;;;;;;4.43;1.52;;;14.00;57.00;;;;;;5052615;28;20433;-75
2021/01/30 13:20:29;;;;;;;6.07;2.00;;;14.00;56.30;;;;;;5054079;28;20021;-75
2021/01/30 13:22:55;;;;;;;6.80;1.77;;;14.00;55.80;;;;;;5053725;28;20107;-75